createdAt,value
2023-05-04T00:02:33.310Z,63.56
2023-05-04T00:07:35.667Z,63.38
2023-05-04T00:12:38.483Z,64.00
2023-05-04T00:17:41.309Z,63.40
2023-05-04T00:22:43.572Z,63.20
2023-05-04T00:27:45.936Z,63.22
2023-05-04T00:32:48.249Z,63.19
2023-05-04T00:37:50.495Z,63.06
2023-05-04T00:42:52.825Z,62.92
2023-05-04T00:47:55.569Z,62.89
2023-05-04T00:53:01.989Z,62.99
2023-05-04T00:58:04.315Z,62.98
2023-05-04T01:03:06.710Z,63.15
2023-05-04T01:08:15.656Z,63.57
2023-05-04T01:13:22.512Z,63.37
2023-05-04T01:18:24.783Z,63.41
2023-05-04T01:23:27.856Z,63.28
2023-05-04T01:28:41.953Z,63.18
2023-05-04T01:33:45.550Z,63.06
2023-05-04T01:38:54.667Z,63.30
2023-05-04T01:43:58.822Z,64.84
2023-05-04T01:49:01.085Z,64.47
2023-05-04T01:54:03.391Z,63.67
2023-05-04T01:59:05.585Z,63.74
2023-05-04T02:04:08.318Z,63.36
2023-05-04T02:09:10.705Z,63.71
2023-05-04T02:14:12.948Z,64.05
2023-05-04T02:19:15.096Z,64.09
2023-05-04T02:24:17.292Z,63.89
2023-05-04T02:29:19.477Z,64.46
2023-05-04T02:34:21.984Z,64.11
2023-05-04T02:39:24.156Z,64.33
2023-05-04T02:44:26.378Z,64.44
2023-05-04T02:49:28.737Z,64.42
2023-05-04T02:54:31.073Z,64.04
2023-05-04T02:59:33.457Z,64.45
2023-05-04T03:04:37.002Z,63.91
2023-05-04T03:09:39.389Z,64.07
2023-05-04T03:14:41.625Z,64.49
2023-05-04T03:19:43.912Z,64.65
2023-05-04T03:24:46.191Z,67.03
2023-05-04T03:29:48.452Z,66.83
2023-05-04T03:34:50.829Z,65.91
2023-05-04T03:39:53.059Z,65.84
2023-05-04T03:44:55.207Z,67.32
2023-05-04T03:49:57.467Z,67.45
2023-05-04T03:54:59.748Z,67.63
2023-05-04T04:00:02.244Z,67.67
2023-05-04T04:05:04.904Z,66.90
2023-05-04T04:10:08.201Z,66.47
2023-05-04T04:15:10.745Z,65.83
2023-05-04T04:20:13.540Z,65.23
2023-05-04T04:25:15.721Z,65.04
2023-05-04T04:30:18.231Z,65.16
2023-05-04T04:35:20.550Z,66.29
2023-05-04T04:40:23.274Z,70.07
2023-05-04T04:45:26.057Z,68.14
2023-05-04T04:50:29.539Z,68.14
2023-05-04T04:55:32.915Z,68.37
2023-05-04T05:00:36.072Z,67.16
2023-05-04T05:05:38.238Z,66.88
2023-05-04T05:10:41.966Z,66.22
2023-05-04T05:15:46.020Z,67.66
2023-05-04T05:20:48.959Z,68.59
2023-05-04T05:25:52.006Z,67.20
2023-05-04T05:30:54.483Z,65.96
2023-05-04T05:35:57.251Z,65.50
2023-05-04T05:40:59.647Z,64.63
2023-05-04T05:46:01.894Z,64.41
2023-05-04T05:51:04.510Z,64.58
2023-05-04T05:56:06.885Z,64.17
2023-05-04T06:01:09.173Z,63.84
2023-05-04T06:06:11.932Z,63.70
2023-05-04T06:11:14.445Z,63.83
2023-05-04T06:16:16.756Z,64.39
2023-05-04T06:21:18.995Z,64.33
2023-05-04T06:26:22.476Z,64.42
2023-05-04T06:31:24.716Z,64.66
2023-05-04T06:36:27.153Z,64.89
2023-05-04T06:41:29.774Z,64.69
2023-05-04T06:46:34.516Z,64.86
2023-05-04T06:51:38.044Z,64.53
2023-05-04T06:56:40.435Z,64.79
2023-05-04T07:01:42.938Z,65.06
2023-05-04T07:06:45.204Z,64.50
2023-05-04T07:11:48.960Z,64.18
2023-05-04T07:16:51.236Z,64.00
2023-05-04T07:21:53.480Z,63.65
2023-05-04T07:26:55.623Z,63.00
2023-05-04T07:31:57.791Z,62.76
2023-05-04T07:37:00.150Z,62.52
2023-05-04T07:42:04.518Z,62.07
2023-05-04T07:47:06.901Z,61.79
2023-05-04T07:52:09.357Z,61.60
2023-05-04T07:57:11.670Z,61.07
2023-05-04T08:02:14.203Z,60.92
2023-05-04T08:07:17.507Z,60.54
2023-05-04T08:12:19.819Z,60.44
2023-05-04T08:17:22.291Z,59.86
2023-05-04T08:22:25.065Z,59.14
2023-05-04T08:27:27.271Z,59.05
2023-05-04T08:32:32.541Z,57.90
2023-05-04T08:37:35.522Z,58.57
2023-05-04T08:42:38.369Z,57.39
2023-05-04T08:47:43.440Z,58.77
2023-05-04T08:52:49.515Z,57.49
2023-05-04T08:57:51.942Z,57.15
2023-05-04T09:02:55.244Z,56.26
2023-05-04T09:07:58.382Z,56.39
2023-05-04T09:13:00.975Z,56.18
2023-05-04T09:18:05.757Z,56.32
2023-05-04T09:23:09.570Z,56.49
2023-05-04T09:28:11.845Z,55.24
2023-05-04T09:33:14.109Z,54.14
2023-05-04T09:38:29.618Z,55.22
2023-05-04T09:43:42.426Z,54.40
2023-05-04T09:48:51.988Z,54.40
2023-05-04T09:53:54.912Z,53.95
2023-05-04T09:59:00.512Z,53.93
2023-05-04T10:04:04.479Z,53.88
2023-05-04T10:09:07.169Z,53.29
2023-05-04T10:14:09.864Z,53.15
2023-05-04T10:19:30.852Z,53.89
2023-05-04T10:25:25.340Z,54.93
2023-05-04T10:30:30.206Z,57.04
2023-05-04T10:35:33.106Z,57.54
2023-05-04T10:40:39.972Z,56.22
2023-05-04T10:45:42.617Z,54.75
2023-05-04T10:50:50.725Z,54.74
2023-05-04T10:55:53.018Z,54.30
2023-05-04T11:00:55.399Z,53.39
2023-05-04T11:05:57.866Z,52.31
2023-05-04T11:11:07.413Z,51.96
2023-05-04T11:16:12.943Z,52.59
2023-05-04T11:21:25.097Z,52.29
2023-05-04T11:26:28.737Z,51.85
2023-05-04T11:31:31.173Z,51.49
2023-05-04T11:36:40.154Z,51.13
2023-05-04T11:41:43.912Z,51.92
2023-05-04T11:46:46.187Z,51.55
2023-05-04T11:51:49.010Z,50.80
2023-05-04T11:56:51.277Z,49.56
2023-05-04T12:01:53.514Z,48.97
2023-05-04T12:06:55.808Z,49.15
2023-05-04T12:11:58.080Z,49.11
2023-05-04T12:17:03.316Z,49.46
2023-05-04T12:22:06.485Z,48.14
2023-05-04T12:27:15.222Z,47.28
2023-05-04T12:32:18.127Z,46.33
2023-05-04T12:37:21.067Z,46.23
2023-05-04T12:42:24.757Z,46.11
2023-05-04T12:47:27.130Z,46.13
2023-05-04T12:52:29.490Z,45.88
2023-05-04T12:57:31.714Z,46.35
2023-05-04T13:02:34.043Z,46.54
2023-05-04T13:07:36.743Z,45.96
2023-05-04T13:12:39.091Z,45.85
2023-05-04T13:17:43.922Z,45.65
2023-05-04T13:22:48.382Z,45.80
2023-05-04T13:27:50.637Z,45.75
2023-05-04T13:32:52.979Z,46.18
2023-05-04T13:37:55.481Z,47.42
2023-05-04T13:42:57.653Z,48.83
2023-05-04T13:47:59.936Z,48.96
2023-05-04T13:53:03.174Z,49.08
2023-05-04T13:58:05.429Z,49.00
2023-05-04T14:03:07.974Z,49.85
2023-05-04T14:08:11.157Z,52.54
2023-05-04T14:13:13.538Z,53.78
2023-05-04T14:18:16.271Z,54.53
2023-05-04T14:23:18.613Z,55.93
2023-05-04T14:28:20.807Z,57.58
2023-05-04T14:33:23.037Z,57.60
2023-05-04T14:38:25.276Z,59.31
2023-05-04T14:43:27.697Z,61.14
2023-05-04T14:48:29.976Z,60.27
2023-05-04T14:53:36.875Z,60.48
2023-05-04T14:58:40.380Z,64.18
2023-05-04T15:03:42.980Z,63.67
2023-05-04T15:08:46.010Z,61.90
2023-05-04T15:13:48.221Z,61.03
2023-05-04T15:18:50.480Z,60.88
2023-05-04T15:23:52.689Z,63.38
2023-05-04T15:28:55.326Z,63.70
2023-05-04T15:33:57.555Z,62.51
2023-05-04T15:39:00.167Z,62.06
2023-05-04T15:44:04.044Z,61.77
2023-05-04T15:49:06.312Z,61.15
2023-05-04T15:54:08.573Z,61.30
2023-05-04T15:59:10.777Z,63.15
2023-05-04T16:04:12.981Z,63.84
2023-05-04T16:09:20.527Z,63.81
2023-05-04T16:14:22.776Z,63.05
2023-05-04T16:19:25.092Z,63.12
2023-05-04T16:24:27.405Z,63.24
2023-05-04T16:29:29.824Z,62.65
2023-05-04T16:34:32.112Z,62.70
2023-05-04T16:39:34.888Z,62.48
2023-05-04T16:44:37.272Z,62.58
2023-05-04T16:49:39.462Z,62.57
2023-05-04T16:54:41.845Z,62.63
2023-05-04T16:59:44.110Z,64.13
2023-05-04T17:04:46.428Z,63.93
2023-05-04T17:09:48.853Z,64.50
2023-05-04T17:14:51.316Z,64.30
2023-05-04T17:19:53.690Z,63.71
2023-05-04T17:24:56.276Z,63.94
2023-05-04T17:29:58.503Z,63.74
2023-05-04T17:35:05.764Z,63.83
2023-05-04T17:40:18.596Z,63.83
2023-05-04T17:45:21.579Z,63.60
2023-05-04T17:50:24.019Z,63.52
2023-05-04T17:55:26.444Z,63.71
2023-05-04T18:00:28.920Z,63.67
2023-05-04T18:05:32.465Z,63.55
2023-05-04T18:10:34.992Z,64.13
2023-05-04T18:15:37.266Z,64.08
2023-05-04T18:20:39.721Z,64.27
2023-05-04T18:25:41.991Z,63.92
2023-05-04T18:30:44.238Z,64.35
2023-05-04T18:35:46.494Z,63.88
2023-05-04T18:40:53.901Z,63.71
2023-05-04T18:45:56.248Z,63.67
2023-05-04T18:50:58.911Z,63.57
2023-05-04T18:56:05.329Z,63.38
2023-05-04T19:01:07.682Z,63.64
2023-05-04T19:06:10.169Z,63.88
2023-05-04T19:11:12.699Z,63.61
2023-05-04T19:16:15.098Z,63.55
2023-05-04T19:21:17.371Z,63.58
2023-05-04T19:26:19.852Z,63.76
2023-05-04T19:31:22.152Z,63.68
2023-05-04T19:36:24.392Z,63.57
2023-05-04T19:41:27.181Z,63.59
2023-05-04T19:46:31.604Z,63.57
2023-05-04T19:51:34.318Z,63.55
2023-05-04T19:56:36.712Z,63.51
2023-05-04T20:01:39.035Z,63.78
2023-05-04T20:06:41.553Z,64.09
2023-05-04T20:11:43.826Z,65.17
2023-05-04T20:16:46.204Z,65.45
2023-05-04T20:21:48.482Z,64.95
2023-05-04T20:26:50.825Z,64.86
2023-05-04T20:31:53.402Z,65.18
2023-05-04T20:36:56.081Z,65.54
2023-05-04T20:41:59.673Z,65.73
2023-05-04T20:47:02.051Z,65.56
2023-05-04T20:52:04.859Z,67.34
2023-05-04T20:57:07.227Z,68.11
2023-05-04T21:02:09.803Z,68.20
2023-05-04T21:07:12.141Z,66.89
2023-05-04T21:12:14.445Z,66.44
2023-05-04T21:17:16.831Z,66.16
2023-05-04T21:22:19.236Z,66.99
2023-05-04T21:27:21.627Z,68.10
2023-05-04T21:32:24.242Z,68.59
2023-05-04T21:37:26.571Z,68.42
2023-05-04T21:42:28.922Z,68.06
2023-05-04T21:47:31.514Z,69.64
2023-05-04T21:52:33.838Z,67.59
2023-05-04T21:57:36.106Z,68.24
2023-05-04T22:02:39.311Z,70.36
2023-05-04T22:07:41.567Z,71.71
2023-05-04T22:12:43.860Z,71.85
2023-05-04T22:17:46.543Z,71.69
2023-05-04T22:22:48.774Z,72.65
2023-05-04T22:27:51.103Z,73.76
2023-05-04T22:32:54.097Z,74.55
2023-05-04T22:37:56.390Z,73.92
2023-05-04T22:42:58.550Z,71.79
2023-05-04T22:48:00.805Z,71.11
2023-05-04T22:53:03.145Z,70.05
2023-05-04T22:58:05.406Z,69.25
2023-05-04T23:03:08.456Z,68.69
2023-05-04T23:08:10.819Z,68.50
2023-05-04T23:13:13.534Z,68.05
2023-05-04T23:18:15.918Z,68.19
2023-05-04T23:23:18.124Z,67.65
2023-05-04T23:28:20.296Z,68.63
2023-05-04T23:33:22.609Z,67.53
2023-05-04T23:38:24.960Z,69.58
2023-05-04T23:43:27.246Z,69.91
2023-05-04T23:48:32.922Z,70.43
2023-05-04T23:53:38.553Z,71.25
2023-05-04T23:58:42.491Z,70.40
